< < Back
Terminal Aerodrome Forecast


Current Version              Previous Versions:   1  2  3  4  5  6  7  8  9  

Terminal Aerodrome Forecast

759
FTUS42 KCAE 050224 AAA
TAFAGS
TAF AMD
KAGS 050224Z 0502/0524 VRB04KT P6SM SCT045
     FM050500 00000KT 4SM BR SCT250
     FM050800 00000KT 2SM BR SCT250
     FM051400 04009KT P6SM SCT050=

Latest METAR

090
SAUS70 KWBC 050300 RRI
MTRAGS
METAR KAGS 050253Z 07003KT 8SM CLR 23/22 A3001 RMK AO2 SLP160 T02280222
51020


USA.gov is the U.S. government's official web portal to all federal, state and local government web resources and services.